Airfield :
LOGIN :

Register | Disclaimer

   EN    FR    IT 

 










Legend :    VFR   Marginal VFR   IFR   Intensive IFR   Very Intensive IFR
Visi :
Ceiling :
>= 8 km
>= 3000ft
5 to 8 km
1000 to 3000 ft
1500m to 5 km
500 to 1000 ft
800 to 1500m
200 to 500 ft
< 800m
< 200 ft
Symbols :   Thunderstorms  Fog  Heavy snow  Heavy precipitations  Wind > 20 kt
SIGMETs :     Misc.  Thunderstorms  Icing  Turbulence  Mountain Waves  Volcanic Ashes







- Airport Elevation : 39 ft
- IATA code : ANR


EBAW - Anvers / Antwerpen Deurne

CURRENT METAR :
  • 220350Z AUTO 12001KT 5000 // NCD 08/07 Q1019

EXPIRED METARs :
  • 220320Z AUTO 12001KT 2700 BR NCD 08/07 Q1019
  • 220250Z AUTO 10002KT 1000 R11/1500D R29/P2000N BR NCD 08/07 Q1019
  • 220220Z AUTO 10002KT 0800 R11/1100U R29/P2000N BCFG NCD 09/08 Q1019
  • 220150Z AUTO 09001KT 0650 R11/1200D R29/P2000N // NCD 08/08 Q1019
  • 220120Z AUTO 10001KT 6000 // NCD 09/08 Q1019

TAF TAF EBAW
Valid from the 22 at 03:00 until the 22 at 12:00 UTC


220220Z 2203/2212 22004KT 6000 NSC
TEMPO 2203/2207 2500 BR
PROB30
TEMPO 2203/2206 0500 FG
PROB40
TEMPO 2207/2211 4500 -RADZ SCT009 BKN013
No reported NOTAMs for that airfield.



MET'MAP, your aeronautical weather chart ! - Copyright ORBIFLY December 2007 - Disclaimer

ORBIFLY MET'MAP TEAM :

Programming & Development : Alexandra Zaïnal
Concept & Development : Baudouin d'Aumeries
Co-Development & Prog : Marc-Olivier Méhu
Technical & hardware support : Manuel Goepfert

Contact : metmap@orbifly.com




SOURCES & CREDITS :

   NOAA